Hillcrest Heights, Maryland
Current Conditions -  °F | °C
As of 7:55 PM on Sunday 21 Dec 2014 (Local Time) from KADW Reporting Station
Scattered Clouds Scattered Clouds  
Wind Chill: 30°   Ceiling: Unl
Heat Index: 30°   Visibility: 10mi
Dew Point: 23°   Wind: 0mph
Humidity: 77%   Direction: NA
Pressure: 30.32"   Gusts: NA
Location:  38.8182°N, 76.9414°W
Report Text: KADW 220055Z 00000KT 10SM SCT070 M01/M05 A3032 RMK SLP271 AO2A T10131049
Loading
Personal Weather Stations






























Interactive Weather Map New forecast layout! Learn more

10-Day Weather Forecast

Advertisements
Track Severe Weather on mobile